Current Conditions
Overcast
Conditions




Pressure
30.04 (inHG) - 1017.32 (mb)
Visibility

10.0 (mimiles) - 16.1 (km)
   Temperature
19  °F
-7°C
14  °F
Dewpoint
79  %
 Humidity
   Wind Speed
0  mph
0  kts
0  km/h
0  m/s
   Wind Direction
Calm
Due North
   Airport Data
KBUU
Location Burlington Municipal 6 mi (9.65 km)
Metar :KBUU 271315Z AUTO 00000KT 10SM OVC050 M07/M10 A3004 RMK AO2 T10661101
Thu 27th February 07:15 am
   Raw Metar Info
Raw METAR is the most common format in the world for the transmission of observational weather data. It is highly standardized through the International Civil Aviation Organization (ICAO), which allows it to be understood throughout most of the world.
   API Info
Data Provided by
https://www.checkwx.com/weather/KBUU
   © Info
CSS/SVG/PHP scripts were developed by weather34.com for use in the weather34 template © 2015-2020

Guide Info provided by Metar-Wikipedia